Time;durP1;ratioP1;P1;durP2;ratioP2;P2;SDS_P1;SDS_P2;PMS_P1;PMS_P2;Temp;Humidity;BMP_temperature;BMP_pressure;BME280_temperature;BME280_humidity;BME280_pressure;Samples;Min_cycle;Max_cycle;Signal;HPM_P1;HPM_P2
2021/07/08 00:01:13;;;;;;;6.28;3.45;;;;;;;;;;6137093;28;20417;-77
2021/07/08 00:04:15;;;;;;;4.83;3.37;;;;;;;;;;6118919;29;20056;-77
2021/07/08 00:07:17;;;;;;;8.23;3.08;;;;;;;;;;6133980;29;20139;-77
2021/07/08 00:10:23;;;;;;;8.02;3.45;;;;;;;;;;6134604;28;20127;-77
2021/07/08 00:13:27;;;;;;;5.32;3.20;;;;;;;;;;6118735;29;20047;-77
2021/07/08 00:16:29;;;;;;;6.28;3.20;;;;;;;;;;6120659;28;20052;-77
2021/07/08 00:19:31;;;;;;;6.80;3.28;;;;;;;;;;6118121;29;20051;-77
2021/07/08 00:22:32;;;;;;;5.78;3.03;;;;;;;;;;6118399;29;20043;-77
2021/07/08 00:25:34;;;;;;;4.88;3.08;;;;;;;;;;6119329;28;20118;-77
2021/07/08 00:28:36;;;;;;;4.43;3.13;;;;;;;;;;6118287;29;20134;-77
2021/07/08 00:31:38;;;;;;;6.20;3.17;;;;;;;;;;6119863;28;20058;-77
2021/07/08 00:34:40;;;;;;;4.65;2.97;;;;;;;;;;6093923;29;20099;-77
2021/07/08 00:37:42;;;;;;;4.47;3.17;;;;;;;;;;6110565;29;20131;-77
2021/07/08 00:40:44;;;;;;;4.80;3.22;;;;;;;;;;6094260;29;20040;-77
2021/07/08 00:43:46;;;;;;;5.38;2.90;;;;;;;;;;6094027;29;20425;-77
2021/07/08 00:46:47;;;;;;;4.85;3.35;;;;;;;;;;6106391;29;20075;-78
2021/07/08 00:49:50;;;;;;;4.30;3.35;;;;;;;;;;6119098;29;20194;-77
2021/07/08 00:52:53;;;;;;;6.38;3.30;;;;;;;;;;6157327;28;20051;-77
2021/07/08 00:56:01;;;;;;;5.78;3.40;;;;;;;;;;6138684;28;20151;-77
2021/07/08 00:59:10;;;;;;;7.60;3.53;;;;;;;;;;6143062;28;20134;-77
2021/07/08 01:02:13;;;;;;;5.70;3.55;;;;;;;;;;6141355;28;20080;-77
2021/07/08 01:05:17;;;;;;;5.68;3.70;;;;;;;;;;6118825;29;20444;-77
2021/07/08 01:08:19;;;;;;;4.18;3.03;;;;;;;;;;6119805;29;20051;-77
2021/07/08 01:11:22;;;;;;;6.63;3.27;;;;;;;;;;6133001;28;20418;-77
2021/07/08 01:14:24;;;;;;;4.97;3.03;;;;;;;;;;6118918;29;20496;-77
2021/07/08 01:17:25;;;;;;;4.10;3.10;;;;;;;;;;6117708;29;20553;-77
2021/07/08 01:20:30;;;;;;;4.68;2.88;;;;;;;;;;6131712;29;20862;-77
2021/07/08 01:23:32;;;;;;;4.75;3.25;;;;;;;;;;6134781;28;20130;-77
2021/07/08 01:26:38;;;;;;;4.63;3.30;;;;;;;;;;6125982;28;20066;-77
2021/07/08 01:29:41;;;;;;;6.25;3.78;;;;;;;;;;6157296;28;20047;-77
2021/07/08 01:32:42;;;;;;;6.65;3.70;;;;;;;;;;6125660;28;20040;-77
2021/07/08 01:35:44;;;;;;;6.32;3.65;;;;;;;;;;6116110;28;20047;-77
2021/07/08 01:38:46;;;;;;;6.75;3.20;;;;;;;;;;6132120;28;20106;-77
2021/07/08 01:41:48;;;;;;;3.97;2.88;;;;;;;;;;6138576;28;20048;-77
2021/07/08 01:44:50;;;;;;;5.25;3.40;;;;;;;;;;6141865;28;20051;-77
2021/07/08 01:47:52;;;;;;;4.90;3.20;;;;;;;;;;6139751;28;20051;-77
2021/07/08 01:50:54;;;;;;;5.75;3.40;;;;;;;;;;6141082;28;20039;-77
2021/07/08 01:53:56;;;;;;;4.50;3.55;;;;;;;;;;6135338;28;20083;-77
2021/07/08 01:56:58;;;;;;;6.10;3.47;;;;;;;;;;6156818;28;20066;-77
2021/07/08 02:00:00;;;;;;;5.43;3.55;;;;;;;;;;6180024;28;20089;-78
2021/07/08 02:03:01;;;;;;;5.63;3.75;;;;;;;;;;6131685;28;20079;-77
2021/07/08 02:06:04;;;;;;;6.05;3.80;;;;;;;;;;6116738;29;20131;-77
2021/07/08 02:09:06;;;;;;;4.85;3.83;;;;;;;;;;6118487;29;20531;-77
2021/07/08 02:12:09;;;;;;;8.13;4.18;;;;;;;;;;6108303;29;20122;-77
2021/07/08 02:15:12;;;;;;;7.47;4.07;;;;;;;;;;6117160;28;20182;-77
2021/07/08 02:18:14;;;;;;;7.95;3.80;;;;;;;;;;6094797;28;20063;-77
2021/07/08 02:21:15;;;;;;;7.07;3.80;;;;;;;;;;6128209;29;20070;-77
2021/07/08 02:24:17;;;;;;;8.15;3.80;;;;;;;;;;6145051;28;20079;-77
2021/07/08 02:27:19;;;;;;;5.30;3.55;;;;;;;;;;6118163;29;20526;-77
2021/07/08 02:30:23;;;;;;;7.40;3.90;;;;;;;;;;6117859;28;20083;-78
2021/07/08 02:33:25;;;;;;;6.72;3.70;;;;;;;;;;6092423;29;20048;-77
2021/07/08 02:36:27;;;;;;;5.25;3.45;;;;;;;;;;6137309;28;20122;-77
2021/07/08 02:39:29;;;;;;;4.43;3.72;;;;;;;;;;6129526;28;20055;-77
2021/07/08 02:42:30;;;;;;;5.05;3.33;;;;;;;;;;6116994;29;20261;-77
2021/07/08 02:45:35;;;;;;;5.03;3.53;;;;;;;;;;6115257;28;20084;-77
2021/07/08 02:48:37;;;;;;;4.28;3.50;;;;;;;;;;6140951;28;20125;-77
2021/07/08 02:51:38;;;;;;;4.82;3.67;;;;;;;;;;6140146;28;20126;-77
2021/07/08 02:54:40;;;;;;;7.53;3.50;;;;;;;;;;6138305;28;20082;-77
2021/07/08 02:57:45;;;;;;;4.70;3.70;;;;;;;;;;6114941;29;20562;-77
2021/07/08 03:00:48;;;;;;;4.10;3.47;;;;;;;;;;6116544;29;20054;-77
2021/07/08 03:03:50;;;;;;;5.78;4.00;;;;;;;;;;6114447;29;20127;-76
2021/07/08 03:06:51;;;;;;;5.93;4.03;;;;;;;;;;6115676;29;20201;-77
2021/07/08 03:09:53;;;;;;;5.05;3.65;;;;;;;;;;6114434;29;20761;-78
2021/07/08 03:12:55;;;;;;;9.05;4.07;;;;;;;;;;6137412;28;20122;-78
2021/07/08 03:15:57;;;;;;;4.93;3.78;;;;;;;;;;6120595;28;20047;-77
2021/07/08 03:18:59;;;;;;;7.10;3.92;;;;;;;;;;6114522;28;20040;-78
2021/07/08 03:22:01;;;;;;;7.78;4.20;;;;;;;;;;6153556;28;20452;-77
2021/07/08 03:25:04;;;;;;;8.25;4.63;;;;;;;;;;6136003;28;20054;-78
2021/07/08 03:28:06;;;;;;;6.40;4.60;;;;;;;;;;6134490;29;20134;-77
2021/07/08 03:31:08;;;;;;;6.97;4.28;;;;;;;;;;6139429;28;20719;-78
2021/07/08 03:34:11;;;;;;;5.70;3.92;;;;;;;;;;6140081;28;20058;-78
2021/07/08 03:37:12;;;;;;;5.35;3.70;;;;;;;;;;6130972;28;20056;-78
2021/07/08 03:40:16;;;;;;;4.45;3.90;;;;;;;;;;6128997;28;20079;-78
2021/07/08 03:43:18;;;;;;;7.70;5.35;;;;;;;;;;6137992;28;20421;-78
2021/07/08 03:46:19;;;;;;;6.13;4.40;;;;;;;;;;6137885;28;20071;-78
2021/07/08 03:49:21;;;;;;;4.13;3.47;;;;;;;;;;6142409;28;20058;-77
2021/07/08 03:52:23;;;;;;;4.70;3.80;;;;;;;;;;6130084;28;20047;-77
2021/07/08 03:55:25;;;;;;;4.95;3.47;;;;;;;;;;6137825;28;20047;-78
2021/07/08 03:58:26;;;;;;;5.15;3.83;;;;;;;;;;6158303;28;20133;-77
2021/07/08 04:01:28;;;;;;;4.45;3.60;;;;;;;;;;6148505;28;20044;-78
2021/07/08 04:04:31;;;;;;;5.72;3.42;;;;;;;;;;6133984;29;20126;-77
2021/07/08 04:07:32;;;;;;;4.93;3.90;;;;;;;;;;6117803;29;20047;-78
2021/07/08 04:10:37;;;;;;;4.57;3.88;;;;;;;;;;6139003;28;20437;-77
2021/07/08 04:13:38;;;;;;;6.88;4.45;;;;;;;;;;6142511;28;20509;-78
2021/07/08 04:16:40;;;;;;;7.75;4.90;;;;;;;;;;6131904;28;20103;-78
2021/07/08 04:19:42;;;;;;;7.43;4.57;;;;;;;;;;6118058;29;20071;-77
2021/07/08 04:22:45;;;;;;;9.98;4.43;;;;;;;;;;6117816;29;20048;-78
2021/07/08 04:25:47;;;;;;;8.65;4.47;;;;;;;;;;6118365;29;20103;-78
2021/07/08 04:28:49;;;;;;;7.00;4.07;;;;;;;;;;6118034;29;20126;-78
2021/07/08 04:31:51;;;;;;;9.57;4.70;;;;;;;;;;6128184;28;20134;-77
2021/07/08 04:34:52;;;;;;;6.85;4.50;;;;;;;;;;6142460;28;20054;-77
2021/07/08 04:37:54;;;;;;;6.60;4.00;;;;;;;;;;6156290;28;20150;-76
2021/07/08 04:40:56;;;;;;;5.72;4.10;;;;;;;;;;6136682;28;20043;-77
2021/07/08 04:43:59;;;;;;;7.03;4.20;;;;;;;;;;6118548;29;20090;-76
2021/07/08 04:47:01;;;;;;;9.32;4.20;;;;;;;;;;6130934;28;20047;-77
2021/07/08 04:50:05;;;;;;;10.35;4.63;;;;;;;;;;6157455;28;20043;-76
2021/07/08 04:53:06;;;;;;;7.25;4.50;;;;;;;;;;6142390;28;20075;-77
2021/07/08 04:56:08;;;;;;;7.35;4.28;;;;;;;;;;6138045;28;20071;-77
2021/07/08 04:59:10;;;;;;;6.22;4.82;;;;;;;;;;6118770;29;20135;-77
2021/07/08 05:02:11;;;;;;;7.22;4.15;;;;;;;;;;6130165;28;20142;-77
2021/07/08 05:05:13;;;;;;;8.95;4.88;;;;;;;;;;6140233;28;20094;-77
2021/07/08 05:08:15;;;;;;;6.38;3.88;;;;;;;;;;6141934;28;20134;-76
2021/07/08 05:11:17;;;;;;;7.45;4.50;;;;;;;;;;6133886;28;20137;-77
2021/07/08 05:14:18;;;;;;;6.53;4.50;;;;;;;;;;6142029;28;20050;-77
2021/07/08 05:17:20;;;;;;;6.85;4.93;;;;;;;;;;6125642;28;20061;-77
2021/07/08 05:20:22;;;;;;;9.20;5.03;;;;;;;;;;6117819;29;20054;-76
2021/07/08 05:23:26;;;;;;;7.97;5.53;;;;;;;;;;6117220;29;20758;-77
2021/07/08 05:26:28;;;;;;;8.27;5.18;;;;;;;;;;6118572;28;20126;-77
2021/07/08 05:29:30;;;;;;;6.97;5.65;;;;;;;;;;6117454;29;20646;-76
2021/07/08 05:32:31;;;;;;;8.27;4.90;;;;;;;;;;6117183;28;20048;-77
2021/07/08 05:35:33;;;;;;;7.45;4.65;;;;;;;;;;6117874;29;20048;-76
2021/07/08 05:38:35;;;;;;;7.85;5.38;;;;;;;;;;6131599;28;20047;-77
2021/07/08 05:41:37;;;;;;;8.60;4.97;;;;;;;;;;6116711;29;20150;-77
2021/07/08 05:44:38;;;;;;;8.20;5.35;;;;;;;;;;6131550;29;20549;-77
2021/07/08 05:47:40;;;;;;;6.97;5.20;;;;;;;;;;6132936;28;20050;-77
2021/07/08 05:50:42;;;;;;;6.72;4.97;;;;;;;;;;6140880;28;20111;-77
2021/07/08 05:53:43;;;;;;;6.47;4.88;;;;;;;;;;6140147;28;20194;-77
2021/07/08 05:56:45;;;;;;;7.53;4.82;;;;;;;;;;6126562;28;20151;-77
2021/07/08 05:59:47;;;;;;;6.57;4.50;;;;;;;;;;6099959;28;20080;-77
2021/07/08 06:02:49;;;;;;;8.48;4.90;;;;;;;;;;6151172;28;20532;-77
2021/07/08 06:05:51;;;;;;;8.32;4.82;;;;;;;;;;6112984;28;20058;-77
2021/07/08 06:08:53;;;;;;;7.43;4.60;;;;;;;;;;6096810;28;20113;-77
2021/07/08 06:11:54;;;;;;;6.88;5.10;;;;;;;;;;6113458;28;20134;-77
2021/07/08 06:14:56;;;;;;;10.20;4.68;;;;;;;;;;6115133;28;20619;-77
2021/07/08 06:17:57;;;;;;;6.00;4.78;;;;;;;;;;6114311;28;20051;-77
2021/07/08 06:20:59;;;;;;;6.95;5.00;;;;;;;;;;6114718;28;20076;-77
2021/07/08 06:24:01;;;;;;;6.90;4.90;;;;;;;;;;6113295;28;20180;-76
2021/07/08 06:27:03;;;;;;;9.88;4.85;;;;;;;;;;6114095;28;20090;-77
2021/07/08 06:30:07;;;;;;;8.45;4.65;;;;;;;;;;6114056;28;20179;-77
2021/07/08 06:33:09;;;;;;;8.60;4.88;;;;;;;;;;6113852;28;20130;-76
2021/07/08 06:36:10;;;;;;;10.07;5.10;;;;;;;;;;6114722;28;20418;-76
2021/07/08 06:39:12;;;;;;;10.02;5.35;;;;;;;;;;6114679;28;20051;-77
2021/07/08 06:42:14;;;;;;;8.43;4.50;;;;;;;;;;6093248;29;20047;-76
2021/07/08 06:45:17;;;;;;;12.33;5.90;;;;;;;;;;6090673;29;20075;-76
2021/07/08 06:48:19;;;;;;;14.48;5.47;;;;;;;;;;6091372;29;20044;-77
2021/07/08 06:51:21;;;;;;;9.55;4.82;;;;;;;;;;6092237;29;20498;-77
2021/07/08 06:54:27;;;;;;;11.32;5.22;;;;;;;;;;6092038;29;20127;-77
2021/07/08 06:57:29;;;;;;;13.02;5.72;;;;;;;;;;6093349;29;20044;-77
2021/07/08 07:00:38;;;;;;;9.55;5.10;;;;;;;;;;6094498;29;20507;-79
2021/07/08 07:03:40;;;;;;;7.57;4.43;;;;;;;;;;6097120;29;20048;-78
2021/07/08 07:06:41;;;;;;;6.88;4.45;;;;;;;;;;6095985;29;20071;-77
2021/07/08 07:09:43;;;;;;;8.82;4.30;;;;;;;;;;6096892;29;20127;-77
2021/07/08 07:12:46;;;;;;;10.63;4.82;;;;;;;;;;6119121;29;20044;-78
2021/07/08 07:15:49;;;;;;;9.88;4.93;;;;;;;;;;6156001;28;20061;-78
2021/07/08 07:18:50;;;;;;;7.35;4.15;;;;;;;;;;6144329;28;20043;-79
2021/07/08 07:21:54;;;;;;;10.15;4.78;;;;;;;;;;6143665;28;20130;-78
2021/07/08 07:24:56;;;;;;;7.68;4.60;;;;;;;;;;6138736;28;20051;-79
2021/07/08 07:27:57;;;;;;;7.90;4.25;;;;;;;;;;6158344;28;20047;-77
2021/07/08 07:30:59;;;;;;;6.55;3.80;;;;;;;;;;6138408;28;20421;-76
2021/07/08 07:34:01;;;;;;;7.85;3.63;;;;;;;;;;6119740;29;20126;-77
2021/07/08 07:37:02;;;;;;;9.23;4.50;;;;;;;;;;6120573;29;20063;-77
2021/07/08 07:40:05;;;;;;;9.15;4.43;;;;;;;;;;6134847;28;20071;-78
2021/07/08 07:43:07;;;;;;;6.18;3.55;;;;;;;;;;6133842;29;20126;-78
2021/07/08 07:46:09;;;;;;;6.55;3.70;;;;;;;;;;6134690;28;20091;-78
2021/07/08 07:49:11;;;;;;;10.18;4.18;;;;;;;;;;6145878;28;20127;-78
2021/07/08 07:52:13;;;;;;;12.68;4.50;;;;;;;;;;6141213;28;20054;-78
2021/07/08 07:55:16;;;;;;;5.45;3.90;;;;;;;;;;6123078;28;20051;-78
2021/07/08 07:58:18;;;;;;;6.10;3.50;;;;;;;;;;6140954;28;20103;-77
2021/07/08 08:01:20;;;;;;;6.82;3.55;;;;;;;;;;6136048;28;20056;-77
2021/07/08 08:04:24;;;;;;;6.47;3.83;;;;;;;;;;6117333;29;20192;-77
2021/07/08 08:10:48;;;;;;;6.07;4.00;;;;;;;;;;6101588;29;20044;-76
2021/07/08 08:13:50;;;;;;;6.13;3.45;;;;;;;;;;6119351;29;20055;-77
2021/07/08 08:16:52;;;;;;;4.47;3.63;;;;;;;;;;6090615;29;20047;-76
2021/07/08 08:19:54;;;;;;;4.60;3.40;;;;;;;;;;6094665;29;20072;-77
2021/07/08 08:22:57;;;;;;;5.93;3.60;;;;;;;;;;6096231;29;20131;-77
2021/07/08 08:26:00;;;;;;;;;;;;;;;;;;6095489;29;20498;-77
2021/07/08 08:29:01;;;;;;;4.20;3.35;;;;;;;;;;6095861;29;19978;-76
2021/07/08 08:32:04;;;;;;;8.02;3.70;;;;;;;;;;6096363;29;20135;-79
2021/07/08 08:35:06;;;;;;;5.18;3.10;;;;;;;;;;6116345;29;20119;-76
2021/07/08 08:38:08;;;;;;;5.80;3.50;;;;;;;;;;6134202;28;20044;-76
2021/07/08 08:41:09;;;;;;;3.97;3.33;;;;;;;;;;6106776;29;20048;-77
2021/07/08 08:44:11;;;;;;;6.53;3.13;;;;;;;;;;6116483;29;20079;-76
2021/07/08 08:47:13;;;;;;;4.32;3.10;;;;;;;;;;6104321;29;20052;-77
2021/07/08 08:50:15;;;;;;;4.18;3.28;;;;;;;;;;6095167;29;20123;-77
2021/07/08 08:53:18;;;;;;;6.93;2.92;;;;;;;;;;6109753;29;20103;-78
2021/07/08 08:56:20;;;;;;;4.43;3.00;;;;;;;;;;6094330;29;20039;-77
2021/07/08 08:59:22;;;;;;;3.53;2.80;;;;;;;;;;6117406;29;20055;-77
2021/07/08 09:02:23;;;;;;;3.38;2.75;;;;;;;;;;6118141;29;20175;-77
2021/07/08 09:05:25;;;;;;;4.10;2.70;;;;;;;;;;6117931;29;20497;-77
2021/07/08 09:08:28;;;;;;;3.10;2.30;;;;;;;;;;6132986;29;20054;-77
2021/07/08 09:11:29;;;;;;;3.05;2.35;;;;;;;;;;6129301;28;20599;-77
2021/07/08 09:14:31;;;;;;;3.35;2.47;;;;;;;;;;6139828;28;20130;-77
2021/07/08 09:17:39;;;;;;;3.67;2.38;;;;;;;;;;6121354;28;20696;-77
2021/07/08 09:20:41;;;;;;;6.63;2.17;;;;;;;;;;6114612;29;20117;-77
2021/07/08 09:24:01;;;;;;;4.93;2.20;;;;;;;;;;6113884;29;20636;-76
2021/07/08 09:27:09;;;;;;;3.80;2.03;;;;;;;;;;6115408;28;20540;-77
2021/07/08 09:30:31;;;;;;;3.53;1.92;;;;;;;;;;6129714;29;20146;-76
2021/07/08 09:33:36;;;;;;;5.45;2.35;;;;;;;;;;6129947;29;20081;-77
2021/07/08 09:36:38;;;;;;;3.35;2.10;;;;;;;;;;6116536;29;20083;-77
2021/07/08 09:39:41;;;;;;;4.07;2.27;;;;;;;;;;6136801;28;20445;-77
2021/07/08 09:42:45;;;;;;;3.55;2.03;;;;;;;;;;6154693;28;20125;-77
2021/07/08 09:45:47;;;;;;;4.40;2.10;;;;;;;;;;6135220;28;20051;-77
2021/07/08 09:49:07;;;;;;;2.03;1.83;;;;;;;;;;6140492;28;20046;-77
2021/07/08 09:52:10;;;;;;;5.07;2.55;;;;;;;;;;6135871;28;20571;-77
2021/07/08 09:55:17;;;;;;;3.42;1.98;;;;;;;;;;6138445;28;20047;-77
2021/07/08 09:58:19;;;;;;;2.85;1.92;;;;;;;;;;6153584;28;20082;-76
2021/07/08 10:01:22;;;;;;;3.05;1.98;;;;;;;;;;6121758;28;20126;-78
2021/07/08 10:04:24;;;;;;;4.90;2.30;;;;;;;;;;6139209;28;20051;-77
2021/07/08 10:07:28;;;;;;;3.85;1.92;;;;;;;;;;6154970;28;20051;-77
2021/07/08 10:10:30;;;;;;;6.32;2.28;;;;;;;;;;6139314;28;20125;-78
2021/07/08 10:13:35;;;;;;;2.65;1.80;;;;;;;;;;6132282;29;20513;-77
2021/07/08 10:16:38;;;;;;;2.38;1.60;;;;;;;;;;6131109;28;20413;-77
2021/07/08 10:19:43;;;;;;;4.38;1.60;;;;;;;;;;6116816;29;20469;-77
2021/07/08 10:22:45;;;;;;;3.63;1.80;;;;;;;;;;6116473;29;20183;-78
2021/07/08 10:25:48;;;;;;;2.75;2.00;;;;;;;;;;6129899;28;20071;-77
2021/07/08 10:29:11;;;;;;;2.92;1.90;;;;;;;;;;6116486;29;20054;-78
2021/07/08 10:32:15;;;;;;;7.43;2.00;;;;;;;;;;6116054;29;20106;-78
2021/07/08 10:35:40;;;;;;;5.60;2.05;;;;;;;;;;6130009;28;20051;-78
2021/07/08 10:38:42;;;;;;;4.85;1.95;;;;;;;;;;6130348;29;20043;-77
2021/07/08 10:41:50;;;;;;;2.85;1.80;;;;;;;;;;6116259;28;20187;-77
2021/07/08 10:44:52;;;;;;;4.53;2.20;;;;;;;;;;6115397;29;20046;-78
2021/07/08 10:48:11;;;;;;;3.78;1.98;;;;;;;;;;6115995;29;20052;-78
2021/07/08 10:51:28;;;;;;;4.00;2.40;;;;;;;;;;6115959;29;20048;-77
2021/07/08 10:54:31;;;;;;;3.40;2.28;;;;;;;;;;6115425;28;20428;-78
2021/07/08 10:57:37;;;;;;;2.72;2.10;;;;;;;;;;6116093;29;20048;-77
2021/07/08 11:00:49;;;;;;;2.70;2.10;;;;;;;;;;6114677;28;20054;-77
2021/07/08 11:03:51;;;;;;;4.20;2.20;;;;;;;;;;6130163;29;20522;-78
2021/07/08 11:07:12;;;;;;;7.13;2.33;;;;;;;;;;6115725;29;20071;-78
2021/07/08 11:10:15;;;;;;;2.45;2.20;;;;;;;;;;6132487;28;20083;-77
2021/07/08 11:13:29;;;;;;;5.60;2.10;;;;;;;;;;6137760;28;20493;-77
2021/07/08 11:17:00;;;;;;;3.47;2.20;;;;;;;;;;6136438;28;20066;-77
2021/07/08 11:20:02;;;;;;;3.60;1.88;;;;;;;;;;6136927;28;20178;-77
2021/07/08 11:23:37;;;;;;;5.93;2.08;;;;;;;;;;6137424;28;20047;-77
2021/07/08 11:27:00;;;;;;;2.17;1.80;;;;;;;;;;6135592;28;20301;-77
2021/07/08 11:30:11;;;;;;;4.60;2.08;;;;;;;;;;6129589;28;20067;-77
2021/07/08 11:33:20;;;;;;;5.13;2.17;;;;;;;;;;6092243;29;20413;-77
2021/07/08 11:36:24;;;;;;;4.65;2.40;;;;;;;;;;6090740;29;20514;-77
2021/07/08 11:39:26;;;;;;;3.03;2.42;;;;;;;;;;6111876;29;20052;-77
2021/07/08 11:42:35;;;;;;;4.15;2.22;;;;;;;;;;6137323;28;20039;-77
2021/07/08 11:45:37;;;;;;;2.85;2.40;;;;;;;;;;6153424;28;20126;-77
2021/07/08 11:48:41;;;;;;;4.20;2.38;;;;;;;;;;6120592;29;20046;-77
2021/07/08 11:51:47;;;;;;;3.53;2.13;;;;;;;;;;6119820;29;20043;-77
2021/07/08 11:55:00;;;;;;;2.97;1.73;;;;;;;;;;6118972;29;20090;-77
2021/07/08 11:58:04;;;;;;;3.42;1.80;;;;;;;;;;6135442;29;20498;-77
2021/07/08 12:01:07;;;;;;;4.55;1.80;;;;;;;;;;6117843;29;20548;-77
2021/07/08 12:04:20;;;;;;;3.85;1.70;;;;;;;;;;6119245;29;20118;-76
2021/07/08 12:07:23;;;;;;;4.18;2.25;;;;;;;;;;6117884;29;20136;-76
2021/07/08 12:10:29;;;;;;;3.92;1.95;;;;;;;;;;6125519;28;20484;-76
2021/07/08 12:13:31;;;;;;;4.53;2.15;;;;;;;;;;6165454;28;21002;-76
2021/07/08 12:16:54;;;;;;;3.58;2.13;;;;;;;;;;6137544;28;20048;-76
2021/07/08 12:20:10;;;;;;;2.78;1.98;;;;;;;;;;6095671;29;20172;-75
2021/07/08 12:23:11;;;;;;;4.68;2.20;;;;;;;;;;6095522;29;20184;-76
2021/07/08 12:26:37;;;;;;;4.00;1.93;;;;;;;;;;6096178;29;20072;-76
2021/07/08 12:29:41;;;;;;;3.35;2.03;;;;;;;;;;6095744;29;20103;-76
2021/07/08 12:32:43;;;;;;;4.03;2.20;;;;;;;;;;6093577;29;20124;-76
2021/07/08 12:35:48;;;;;;;3.83;2.13;;;;;;;;;;6094621;29;20072;-76
2021/07/08 12:38:50;;;;;;;5.38;2.25;;;;;;;;;;6095156;29;20581;-75
2021/07/08 12:41:52;;;;;;;3.53;2.30;;;;;;;;;;6114702;29;20044;-75
2021/07/08 12:44:58;;;;;;;4.20;2.23;;;;;;;;;;6118576;29;20066;-75
2021/07/08 12:48:01;;;;;;;4.50;2.13;;;;;;;;;;6097395;29;20040;-78
2021/07/08 12:51:03;;;;;;;3.17;2.33;;;;;;;;;;6093652;29;20052;-77
2021/07/08 12:54:06;;;;;;;3.13;2.35;;;;;;;;;;6108953;29;20045;-76
2021/07/08 12:57:07;;;;;;;;;;;;;;;;;;6097755;29;20044;-78
2021/07/08 13:00:10;;;;;;;4.40;2.53;;;;;;;;;;6078218;29;20005;-76
2021/07/08 13:03:20;;;;;;;3.72;2.67;;;;;;;;;;6095442;29;20044;-76
2021/07/08 13:06:31;;;;;;;3.88;2.80;;;;;;;;;;6094643;29;20051;-76
2021/07/08 13:09:33;;;;;;;6.07;2.90;;;;;;;;;;6101982;29;20497;-76
2021/07/08 13:12:36;;;;;;;4.18;3.10;;;;;;;;;;6118028;29;20126;-76
2021/07/08 13:15:47;;;;;;;3.78;3.15;;;;;;;;;;6115049;29;20036;-77
2021/07/08 13:18:49;;;;;;;7.40;3.42;;;;;;;;;;6099824;29;20129;-79
2021/07/08 13:21:51;;;;;;;6.20;3.45;;;;;;;;;;6098068;29;20196;-77
2021/07/08 13:24:52;;;;;;;9.07;4.00;;;;;;;;;;6116320;29;20054;-74
2021/07/08 13:27:55;;;;;;;5.28;3.58;;;;;;;;;;6117267;29;20051;-75
2021/07/08 13:31:07;;;;;;;5.50;4.00;;;;;;;;;;6115762;28;20394;-75
2021/07/08 13:34:09;;;;;;;5.80;3.35;;;;;;;;;;6117292;29;20517;-78
2021/07/08 13:37:26;;;;;;;5.95;3.50;;;;;;;;;;6117484;29;20051;-75
2021/07/08 13:40:27;;;;;;;3.95;2.75;;;;;;;;;;6117575;29;20055;-76
2021/07/08 13:43:43;;;;;;;3.40;2.47;;;;;;;;;;6114806;29;20043;-78
2021/07/08 13:46:54;;;;;;;3.72;2.30;;;;;;;;;;6131808;28;20505;-76
2021/07/08 13:49:57;;;;;;;4.68;2.47;;;;;;;;;;6116765;29;20047;-76
2021/07/08 13:52:58;;;;;;;3.97;2.15;;;;;;;;;;6105726;28;20071;-77
2021/07/08 13:56:00;;;;;;;8.00;2.70;;;;;;;;;;6139533;28;20177;-76
2021/07/08 13:59:04;;;;;;;5.23;2.57;;;;;;;;;;6138763;28;20081;-75
2021/07/08 14:02:07;;;;;;;3.78;2.45;;;;;;;;;;6119544;28;20510;-76
2021/07/08 14:05:09;;;;;;;4.38;2.40;;;;;;;;;;6129692;28;20190;-76
2021/07/08 14:08:12;;;;;;;5.07;2.38;;;;;;;;;;6137522;28;20097;-77
2021/07/08 14:11:16;;;;;;;3.80;2.25;;;;;;;;;;6120947;28;20066;-77
2021/07/08 14:14:17;;;;;;;2.72;2.20;;;;;;;;;;6137416;28;20568;-77
2021/07/08 14:17:20;;;;;;;6.57;2.40;;;;;;;;;;6124411;28;20525;-76
2021/07/08 14:20:22;;;;;;;4.68;2.20;;;;;;;;;;6130606;29;20050;-77
2021/07/08 14:23:24;;;;;;;10.80;2.75;;;;;;;;;;6119104;28;20051;-77
2021/07/08 14:26:26;;;;;;;3.08;2.28;;;;;;;;;;6106738;29;20047;-77
2021/07/08 14:29:28;;;;;;;6.07;2.10;;;;;;;;;;6130351;29;20051;-77
2021/07/08 14:32:30;;;;;;;4.22;2.10;;;;;;;;;;6099455;29;20492;-76
2021/07/08 14:35:32;;;;;;;2.70;1.60;;;;;;;;;;6095234;28;20052;-76
2021/07/08 14:38:37;;;;;;;5.95;2.38;;;;;;;;;;6112603;28;20186;-77
2021/07/08 14:41:48;;;;;;;4.15;2.20;;;;;;;;;;6113346;28;20651;-76
2021/07/08 14:45:00;;;;;;;3.08;2.25;;;;;;;;;;6097390;29;20127;-76
2021/07/08 14:48:02;;;;;;;5.30;2.53;;;;;;;;;;6092406;28;20059;-76
2021/07/08 14:51:07;;;;;;;3.30;2.60;;;;;;;;;;6089501;29;20183;-76
2021/07/08 14:54:09;;;;;;;3.15;2.47;;;;;;;;;;6100821;28;20055;-76
2021/07/08 14:57:11;;;;;;;4.30;2.80;;;;;;;;;;6132625;28;20178;-76
2021/07/08 15:00:13;;;;;;;5.53;2.80;;;;;;;;;;6152613;28;20087;-76
2021/07/08 15:03:16;;;;;;;4.47;2.65;;;;;;;;;;6135478;28;20043;-76
2021/07/08 15:06:18;;;;;;;4.43;2.72;;;;;;;;;;6136183;28;20055;-76
2021/07/08 15:09:19;;;;;;;4.40;2.25;;;;;;;;;;6101442;29;20130;-76
2021/07/08 15:12:21;;;;;;;6.15;2.50;;;;;;;;;;6110232;29;20130;-77
2021/07/08 15:15:27;;;;;;;3.40;2.30;;;;;;;;;;6120402;28;20134;-77
2021/07/08 15:18:29;;;;;;;5.13;2.60;;;;;;;;;;6112122;28;20044;-77
2021/07/08 15:21:31;;;;;;;3.88;2.50;;;;;;;;;;6116468;28;20059;-77
2021/07/08 15:24:33;;;;;;;3.08;2.58;;;;;;;;;;6108579;28;20071;-76
2021/07/08 15:27:34;;;;;;;3.57;2.87;;;;;;;;;;6142653;28;20059;-80
2021/07/08 15:30:36;;;;;;;5.93;2.45;;;;;;;;;;6144423;28;20054;-79
2021/07/08 15:33:45;;;;;;;4.35;2.70;;;;;;;;;;6144211;28;20080;-79
2021/07/08 15:36:50;;;;;;;2.97;2.55;;;;;;;;;;6146077;28;20613;-79
2021/07/08 15:39:55;;;;;;;5.63;3.00;;;;;;;;;;6117422;29;20142;-79
2021/07/08 15:43:00;;;;;;;5.80;2.72;;;;;;;;;;6124984;28;20043;-78
2021/07/08 15:46:02;;;;;;;4.53;2.78;;;;;;;;;;6142572;28;20043;-78
2021/07/08 15:49:04;;;;;;;3.85;2.83;;;;;;;;;;6159187;28;20047;-79
2021/07/08 15:52:08;;;;;;;4.75;2.70;;;;;;;;;;6144605;28;20043;-79
2021/07/08 15:55:10;;;;;;;4.07;2.55;;;;;;;;;;6143975;28;20045;-78
2021/07/08 15:58:12;;;;;;;3.50;2.77;;;;;;;;;;6143195;28;20054;-79
2021/07/08 16:01:14;;;;;;;4.35;2.83;;;;;;;;;;6149285;28;20142;-79
2021/07/08 16:04:16;;;;;;;3.08;2.78;;;;;;;;;;6145218;28;20317;-79
2021/07/08 16:07:18;;;;;;;6.07;2.88;;;;;;;;;;6160287;28;20560;-79
2021/07/08 16:10:21;;;;;;;4.25;3.00;;;;;;;;;;6141407;28;20524;-79
2021/07/08 16:13:22;;;;;;;4.80;3.08;;;;;;;;;;6159531;28;20134;-79
2021/07/08 16:16:24;;;;;;;4.70;3.08;;;;;;;;;;6140558;28;20506;-79
2021/07/08 16:19:26;;;;;;;3.95;2.97;;;;;;;;;;6160184;28;20086;-79
2021/07/08 16:22:28;;;;;;;3.75;2.92;;;;;;;;;;6144873;28;20122;-79
2021/07/08 16:25:29;;;;;;;3.70;3.05;;;;;;;;;;6138384;28;20050;-79
2021/07/08 16:28:31;;;;;;;3.85;3.38;;;;;;;;;;6116524;29;20058;-78
2021/07/08 16:31:33;;;;;;;5.47;3.00;;;;;;;;;;6108863;29;20111;-79
2021/07/08 16:34:35;;;;;;;4.77;3.40;;;;;;;;;;6113991;29;20054;-79
2021/07/08 16:37:39;;;;;;;4.65;3.10;;;;;;;;;;6142115;28;20103;-79
2021/07/08 16:40:41;;;;;;;3.05;2.75;;;;;;;;;;6125654;28;20103;-79
2021/07/08 16:43:43;;;;;;;5.70;3.13;;;;;;;;;;6116682;29;20191;-79
2021/07/08 16:46:44;;;;;;;4.03;2.63;;;;;;;;;;6139175;28;20086;-79
2021/07/08 16:49:46;;;;;;;4.10;2.40;;;;;;;;;;6130763;28;20126;-79
2021/07/08 16:52:48;;;;;;;5.60;2.72;;;;;;;;;;6138968;28;20138;-79
2021/07/08 16:55:49;;;;;;;4.72;3.03;;;;;;;;;;6135265;28;20067;-79
2021/07/08 16:58:51;;;;;;;4.07;2.90;;;;;;;;;;6119003;29;20047;-79
2021/07/08 17:01:53;;;;;;;3.73;2.43;;;;;;;;;;6120286;28;20052;-79
2021/07/08 17:04:55;;;;;;;3.00;2.70;;;;;;;;;;6120092;29;20463;-79
2021/07/08 17:07:57;;;;;;;4.25;2.97;;;;;;;;;;6121849;29;20075;-79
2021/07/08 17:10:59;;;;;;;3.78;2.70;;;;;;;;;;6138885;28;20043;-79
2021/07/08 17:14:01;;;;;;;3.33;2.75;;;;;;;;;;6148014;28;20868;-79
2021/07/08 17:17:04;;;;;;;3.95;2.92;;;;;;;;;;6136141;28;20039;-79
2021/07/08 17:20:07;;;;;;;4.05;2.70;;;;;;;;;;6122956;29;20044;-79
2021/07/08 17:23:08;;;;;;;3.17;2.35;;;;;;;;;;6117709;28;20507;-79
2021/07/08 17:26:10;;;;;;;2.88;2.40;;;;;;;;;;6160337;28;20054;-79
2021/07/08 17:29:12;;;;;;;3.42;2.60;;;;;;;;;;6160779;28;20122;-79
2021/07/08 17:32:14;;;;;;;3.00;2.25;;;;;;;;;;6132532;28;20058;-80
2021/07/08 17:35:18;;;;;;;4.28;2.58;;;;;;;;;;6139317;28;20099;-79
2021/07/08 17:38:21;;;;;;;2.95;2.35;;;;;;;;;;6152054;28;20047;-78
2021/07/08 17:41:23;;;;;;;3.10;2.05;;;;;;;;;;6147051;28;20134;-79
2021/07/08 17:44:24;;;;;;;5.10;3.30;;;;;;;;;;6140465;28;20047;-79
2021/07/08 17:47:27;;;;;;;2.97;2.40;;;;;;;;;;6127777;28;20059;-78
2021/07/08 17:50:28;;;;;;;6.13;3.30;;;;;;;;;;6162476;28;20054;-79
2021/07/08 17:53:31;;;;;;;3.40;2.67;;;;;;;;;;6183792;28;20078;-79
2021/07/08 17:56:32;;;;;;;3.58;2.65;;;;;;;;;;6148116;28;20082;-78
2021/07/08 17:59:36;;;;;;;4.10;2.80;;;;;;;;;;6145360;28;20450;-79
2021/07/08 18:02:57;;;;;;;5.93;2.90;;;;;;;;;;6145019;28;20043;-79
2021/07/08 18:05:59;;;;;;;4.15;3.22;;;;;;;;;;6143591;28;20046;-79
2021/07/08 18:09:01;;;;;;;4.55;3.75;;;;;;;;;;6142363;28;20110;-79
2021/07/08 18:12:04;;;;;;;5.90;3.58;;;;;;;;;;6136554;28;20082;-80
2021/07/08 18:15:10;;;;;;;4.40;3.13;;;;;;;;;;6118406;29;20147;-79
2021/07/08 18:18:12;;;;;;;5.10;3.17;;;;;;;;;;6141354;28;20067;-79
2021/07/08 18:21:13;;;;;;;5.63;3.67;;;;;;;;;;6140678;28;20133;-80
2021/07/08 18:24:15;;;;;;;4.82;3.25;;;;;;;;;;6138756;28;20105;-79